createdAt,value
2022-08-08T00:00:55.093Z,83.2
2022-08-08T00:05:21.435Z,82.5
2022-08-08T00:10:28.034Z,82.0
2022-08-08T00:15:24.503Z,81.5
2022-08-08T00:20:19.914Z,81.0
2022-08-08T00:25:19.867Z,80.6
2022-08-08T00:30:17.520Z,80.2
2022-08-08T00:35:20.421Z,79.9
2022-08-08T00:41:09.292Z,79.6
2022-08-08T00:45:21.270Z,79.4
2022-08-08T00:50:19.967Z,79.2
2022-08-08T00:55:16.977Z,79.1
2022-08-08T01:00:16.946Z,78.9
2022-08-08T01:05:41.830Z,78.9
2022-08-08T01:10:19.961Z,78.9
2022-08-08T01:15:37.072Z,78.9
2022-08-08T01:20:22.164Z,78.9
2022-08-08T01:25:16.942Z,78.9
2022-08-08T01:30:16.978Z,79.0
2022-08-08T01:35:30.178Z,79.0
2022-08-08T01:40:20.134Z,79.0
2022-08-08T01:45:19.968Z,79.1
2022-08-08T01:50:26.530Z,79.1
2022-08-08T01:56:29.927Z,79.1
2022-08-08T01:56:30.382Z,79.1
2022-08-08T02:00:20.030Z,79.1
2022-08-08T02:05:20.402Z,79.1
2022-08-08T02:10:30.247Z,79.1
2022-08-08T02:15:20.038Z,79.1
2022-08-08T02:21:00.594Z,79.1
2022-08-08T02:25:21.402Z,79.1
2022-08-08T02:30:20.947Z,79.1
2022-08-08T02:35:19.984Z,79.1
2022-08-08T02:40:20.033Z,79.1
2022-08-08T02:45:18.843Z,79.1
2022-08-08T02:50:20.036Z,79.0
2022-08-08T02:55:20.759Z,79.0
2022-08-08T03:00:31.101Z,79.0
2022-08-08T03:05:17.034Z,79.0
2022-08-08T03:10:33.793Z,79.0
2022-08-08T03:16:03.867Z,79.0
2022-08-08T03:20:20.043Z,79.0
2022-08-08T03:25:19.995Z,78.9
2022-08-08T03:30:20.082Z,78.9
2022-08-08T03:35:21.506Z,78.9
2022-08-08T03:40:30.438Z,78.9
2022-08-08T03:46:03.210Z,78.9
2022-08-08T03:50:24.673Z,78.9
2022-08-08T03:55:56.720Z,78.9
2022-08-08T04:00:19.300Z,78.9
2022-08-08T04:05:22.723Z,79.0
2022-08-08T04:10:17.779Z,78.9
2022-08-08T04:15:22.282Z,78.9
2022-08-08T04:20:19.277Z,78.9
2022-08-08T04:25:19.275Z,78.9
2022-08-08T04:30:19.903Z,78.9
2022-08-08T04:35:20.224Z,78.9
2022-08-08T04:40:23.751Z,78.9
2022-08-08T04:45:19.237Z,78.9
2022-08-08T04:50:24.835Z,78.9
2022-08-08T04:55:19.226Z,78.9
2022-08-08T05:00:19.659Z,78.9
2022-08-08T05:05:20.538Z,78.9
2022-08-08T05:10:19.287Z,78.9
2022-08-08T05:15:20.827Z,78.9
2022-08-08T05:20:19.272Z,78.9
2022-08-08T05:25:16.293Z,78.8
2022-08-08T05:30:16.294Z,78.8
2022-08-08T05:35:16.399Z,78.8
2022-08-08T05:40:21.618Z,78.8
2022-08-08T05:45:25.113Z,78.8
2022-08-08T05:50:20.780Z,78.8
2022-08-08T05:55:19.299Z,78.7
2022-08-08T06:00:24.761Z,78.7
2022-08-08T06:05:35.048Z,78.7
2022-08-08T06:10:24.770Z,78.7
2022-08-08T06:15:19.293Z,78.7
2022-08-08T06:20:16.482Z,78.7
2022-08-08T06:25:17.950Z,78.6
2022-08-08T06:30:20.136Z,78.6
2022-08-08T06:36:00.601Z,78.6
2022-08-08T06:40:19.372Z,78.6
2022-08-08T06:45:19.314Z,78.6
2022-08-08T06:50:31.893Z,78.6
2022-08-08T06:55:20.898Z,78.6
2022-08-08T07:00:30.400Z,78.6
2022-08-08T07:05:20.316Z,78.6
2022-08-08T07:10:19.349Z,78.6
2022-08-08T07:15:32.063Z,78.6
2022-08-08T07:20:16.326Z,78.6
2022-08-08T07:25:17.496Z,78.6
2022-08-08T07:30:25.652Z,78.6
2022-08-08T07:35:19.354Z,78.6
2022-08-08T07:40:28.846Z,78.6
2022-08-08T07:45:17.819Z,78.6
2022-08-08T07:50:16.365Z,78.5
2022-08-08T07:55:16.369Z,78.5
2022-08-08T08:00:19.376Z,78.5
2022-08-08T08:05:20.818Z,78.5
2022-08-08T08:10:30.027Z,78.5
2022-08-08T08:15:21.493Z,78.5
2022-08-08T08:20:19.349Z,78.5
2022-08-08T08:25:40.910Z,78.5
2022-08-08T08:30:19.491Z,78.4
2022-08-08T08:35:16.398Z,78.4
2022-08-08T08:40:17.951Z,78.5
2022-08-08T08:45:22.929Z,78.5
2022-08-08T08:50:31.919Z,78.5
2022-08-08T08:55:20.105Z,78.5
2022-08-08T09:00:19.510Z,78.5
2022-08-08T09:05:49.147Z,78.5
2022-08-08T09:10:21.230Z,78.5
2022-08-08T09:15:40.930Z,78.5
2022-08-08T09:21:57.056Z,78.5
2022-08-08T09:22:01.639Z,78.5
2022-08-08T09:25:16.369Z,78.5
2022-08-08T09:30:17.593Z,78.5
2022-08-08T09:35:16.446Z,78.5
2022-08-08T09:40:20.302Z,78.5
2022-08-08T09:46:01.699Z,78.5
2022-08-08T09:50:19.690Z,78.5
2022-08-08T09:56:03.012Z,78.5
2022-08-08T10:00:49.779Z,78.5
2022-08-08T10:05:20.076Z,78.5
2022-08-08T10:10:16.449Z,78.5
2022-08-08T10:15:19.586Z,78.5
2022-08-08T10:20:24.648Z,78.5
2022-08-08T10:25:19.441Z,78.5
2022-08-08T10:30:59.780Z,78.6
2022-08-08T10:35:20.633Z,78.6
2022-08-08T10:40:19.793Z,78.6
2022-08-08T10:45:19.409Z,78.7
2022-08-08T10:50:16.446Z,78.7
2022-08-08T10:55:41.624Z,78.7
2022-08-08T11:00:20.660Z,78.8
2022-08-08T11:05:19.365Z,78.8
2022-08-08T11:10:19.802Z,78.9
2022-08-08T11:15:16.464Z,78.9
2022-08-08T11:20:25.069Z,79.0
2022-08-08T11:25:16.601Z,79.1
2022-08-08T11:30:24.841Z,79.2
2022-08-08T11:35:24.958Z,79.3
2022-08-08T11:40:16.545Z,79.4
2022-08-08T11:45:19.443Z,79.6
2022-08-08T11:50:16.465Z,79.7
2022-08-08T11:55:19.412Z,79.8
2022-08-08T12:00:16.504Z,80.0
2022-08-08T12:05:22.895Z,80.2
2022-08-08T12:10:19.503Z,80.3
2022-08-08T12:15:19.431Z,80.5
2022-08-08T12:20:19.457Z,80.7
2022-08-08T12:25:19.472Z,80.9
2022-08-08T12:30:24.936Z,81.1
2022-08-08T12:35:19.478Z,81.3
2022-08-08T12:40:23.504Z,81.6
2022-08-08T12:45:58.381Z,81.9
2022-08-08T12:50:19.487Z,82.3
2022-08-08T12:55:29.224Z,82.8
2022-08-08T13:00:20.383Z,83.4
2022-08-08T13:05:27.071Z,83.9
2022-08-08T13:10:17.225Z,84.5
2022-08-08T13:15:21.000Z,85.2
2022-08-08T13:20:19.549Z,85.9
2022-08-08T13:25:21.225Z,86.1
2022-08-08T13:30:26.020Z,86.5
2022-08-08T13:35:25.093Z,87.8
2022-08-08T13:40:17.680Z,89.1
2022-08-08T13:45:16.590Z,88.7
2022-08-08T13:50:35.745Z,88.3
2022-08-08T13:55:29.271Z,88.9
2022-08-08T14:00:19.556Z,90.6
2022-08-08T14:05:22.021Z,89.1
2022-08-08T14:10:32.507Z,89.4
2022-08-08T14:15:20.093Z,89.9
2022-08-08T14:20:57.863Z,90.4
2022-08-08T14:25:18.109Z,90.6
2022-08-08T14:30:19.583Z,92.5
2022-08-08T14:35:19.526Z,92.9
2022-08-08T14:40:19.595Z,91.3
2022-08-08T14:45:29.079Z,90.8
2022-08-08T14:50:37.652Z,91.7
2022-08-08T14:55:22.513Z,92.0
2022-08-08T15:00:16.518Z,91.9
2022-08-08T15:05:19.561Z,91.9
2022-08-08T15:10:16.561Z,93.2
2022-08-08T15:16:01.626Z,93.7
2022-08-08T15:20:19.529Z,93.9
2022-08-08T15:25:29.250Z,93.1
2022-08-08T15:30:21.124Z,93.7
2022-08-08T15:35:19.555Z,93.7
2022-08-08T15:40:19.540Z,94.3
2022-08-08T15:45:22.825Z,95.5
2022-08-08T15:50:20.927Z,95.2
2022-08-08T15:55:16.527Z,95.2
2022-08-08T16:00:27.618Z,94.7
2022-08-08T16:05:21.423Z,94.9
2022-08-08T16:13:03.009Z,94.5
2022-08-08T16:13:03.267Z,94.5
2022-08-08T16:13:10.887Z,94.5
2022-08-08T16:15:19.540Z,95.6
2022-08-08T16:20:19.522Z,97.1
2022-08-08T16:25:19.518Z,97.3
2022-08-08T16:30:32.357Z,96.9
2022-08-08T16:35:23.102Z,96.6
2022-08-08T16:40:21.184Z,95.6
2022-08-08T16:46:36.541Z,96.6
2022-08-08T16:46:36.992Z,96.6
2022-08-08T16:50:16.585Z,96.2
2022-08-08T16:55:34.016Z,95.7
2022-08-08T17:00:26.594Z,95.5
2022-08-08T17:05:19.613Z,95.6
2022-08-08T17:10:19.681Z,96.5
2022-08-08T17:15:21.346Z,96.4
2022-08-08T17:20:19.618Z,96.2
2022-08-08T17:25:16.808Z,95.9
2022-08-08T17:30:23.407Z,96.4
2022-08-08T17:35:52.742Z,97.2
2022-08-08T17:40:16.775Z,96.7
2022-08-08T17:45:23.280Z,97.2
2022-08-08T17:50:21.146Z,96.7
2022-08-08T17:56:06.836Z,95.7
2022-08-08T18:00:19.789Z,96.3
2022-08-08T18:05:22.265Z,97.1
2022-08-08T18:10:19.627Z,96.9
2022-08-08T18:15:16.611Z,97.7
2022-08-08T18:20:36.977Z,96.9
2022-08-08T18:25:21.439Z,97.5
2022-08-08T18:30:19.673Z,97.8
2022-08-08T18:35:16.841Z,98.1
2022-08-08T18:40:19.667Z,97.8
2022-08-08T18:45:44.794Z,97.4
2022-08-08T18:50:19.576Z,97.3
2022-08-08T18:55:19.588Z,96.7
2022-08-08T19:00:21.478Z,96.6
2022-08-08T19:05:19.600Z,96.7
2022-08-08T19:10:19.605Z,96.7
2022-08-08T19:15:21.620Z,96.3
2022-08-08T19:20:16.702Z,96.0
2022-08-08T19:26:02.323Z,96.0
2022-08-08T19:26:30.817Z,96.0
2022-08-08T19:30:24.525Z,95.9
2022-08-08T19:35:25.355Z,96.2
2022-08-08T19:40:21.922Z,96.1
2022-08-08T19:45:58.565Z,96.1
2022-08-08T19:50:19.695Z,96.2
2022-08-08T19:55:19.617Z,96.4
2022-08-08T20:00:30.283Z,96.7
2022-08-08T20:05:19.691Z,96.8
2022-08-08T20:10:21.287Z,96.8
2022-08-08T20:15:21.821Z,96.7
2022-08-08T20:20:20.608Z,96.7
2022-08-08T20:25:20.155Z,96.6
2022-08-08T20:30:53.333Z,96.5
2022-08-08T20:35:22.928Z,96.4
2022-08-08T20:40:17.084Z,96.2
2022-08-08T20:45:55.121Z,96.1
2022-08-08T20:50:19.657Z,96.0
2022-08-08T20:55:25.562Z,96.0
2022-08-08T21:00:19.678Z,95.9
2022-08-08T21:05:16.688Z,95.8
2022-08-08T21:10:20.821Z,95.7
2022-08-08T21:16:05.970Z,95.5
2022-08-08T21:20:18.415Z,95.3
2022-08-08T21:25:19.706Z,95.1
2022-08-08T21:30:22.211Z,94.6
2022-08-08T21:36:16.673Z,94.2
2022-08-08T21:40:21.114Z,93.7
2022-08-08T21:45:44.759Z,93.3
2022-08-08T21:48:03.729Z,93.3
2022-08-08T21:48:07.001Z,93.3
2022-08-08T21:50:21.277Z,92.9
2022-08-08T21:56:18.387Z,92.7
2022-08-08T21:56:31.340Z,92.7
2022-08-08T22:00:16.725Z,92.4
2022-08-08T22:05:19.717Z,92.2
2022-08-08T22:10:32.100Z,91.9
2022-08-08T22:15:16.765Z,91.6
2022-08-08T22:20:23.631Z,91.4
2022-08-08T22:25:25.374Z,91.1
2022-08-08T22:30:29.397Z,90.8
2022-08-08T22:35:16.731Z,90.6
2022-08-08T22:40:19.793Z,90.4
2022-08-08T22:45:19.694Z,90.1
2022-08-08T22:50:27.479Z,89.9
2022-08-08T22:55:16.746Z,89.7
2022-08-08T23:00:21.365Z,89.5
2022-08-08T23:05:21.479Z,89.2
2022-08-08T23:10:21.415Z,89.0
2022-08-08T23:16:39.330Z,88.6
2022-08-08T23:16:39.673Z,88.6
2022-08-08T23:20:16.818Z,88.3
2022-08-08T23:25:18.265Z,88.1
2022-08-08T23:30:19.748Z,87.9
2022-08-08T23:35:21.161Z,87.7
2022-08-08T23:40:21.990Z,87.5
2022-08-08T23:45:16.806Z,87.4
2022-08-08T23:50:30.824Z,87.2
2022-08-08T23:55:22.772Z,87.0
